createdAt,value
2019-06-27T00:01:02.691Z,99825.63
2019-06-27T00:03:30.301Z,99814.60
2019-06-27T00:05:58.111Z,99830.03
2019-06-27T00:08:25.673Z,99708.45
2019-06-27T00:10:53.303Z,99833.73
2019-06-27T00:13:20.493Z,99830.17
2019-06-27T00:15:47.259Z,99830.86
2019-06-27T00:18:14.002Z,99832.37
2019-06-27T00:20:41.966Z,99833.81
2019-06-27T00:23:09.602Z,99841.05
2019-06-27T00:25:37.206Z,99840.66
2019-06-27T00:28:04.816Z,99845.81
2019-06-27T00:30:32.382Z,99853.47
2019-06-27T00:33:00.132Z,99847.80
2019-06-27T00:35:28.255Z,99854.27
2019-06-27T00:37:55.834Z,99849.25
2019-06-27T00:40:23.309Z,99846.48
2019-06-27T00:42:51.094Z,99837.98
2019-06-27T00:45:18.609Z,99843.56
2019-06-27T00:47:45.933Z,99850.22
2019-06-27T00:50:13.223Z,99840.41
2019-06-27T00:52:40.647Z,99848.15
2019-06-27T00:55:08.384Z,99602.32
2019-06-27T00:57:35.358Z,99851.30
2019-06-27T01:00:03.256Z,99845.40
2019-06-27T01:02:30.343Z,99847.45
2019-06-27T01:04:56.946Z,99856.60
2019-06-27T01:07:24.354Z,99857.00
2019-06-27T01:09:52.709Z,99689.52
2019-06-27T01:12:20.529Z,99860.14
2019-06-27T01:14:48.167Z,99858.39
2019-06-27T01:17:15.895Z,99857.62
2019-06-27T01:19:43.572Z,99856.64
2019-06-27T01:22:10.526Z,99862.61
2019-06-27T01:24:38.268Z,99858.98
2019-06-27T01:27:06.252Z,99859.05
2019-06-27T01:29:33.146Z,99862.09
2019-06-27T01:32:01.096Z,99863.18
2019-06-27T01:34:29.020Z,99862.07
2019-06-27T01:36:55.771Z,99866.97
2019-06-27T01:39:23.674Z,99861.50
2019-06-27T01:41:51.581Z,99858.30
2019-06-27T01:44:38.391Z,99864.31
2019-06-27T01:47:07.008Z,99866.88
2019-06-27T01:49:34.804Z,99866.54
2019-06-27T01:52:02.371Z,99866.94
2019-06-27T01:54:29.953Z,99863.33
2019-06-27T01:56:57.665Z,99866.63
2019-06-27T01:59:25.384Z,99874.09
2019-06-27T02:01:53.069Z,99881.66
2019-06-27T02:04:20.444Z,99875.08
2019-06-27T02:06:47.632Z,99874.99
2019-06-27T02:09:15.432Z,99871.02
2019-06-27T02:11:43.374Z,99875.18
2019-06-27T02:14:11.581Z,99869.97
2019-06-27T02:16:38.957Z,99869.03
2019-06-27T02:19:06.484Z,99873.03
2019-06-27T02:21:34.507Z,99864.19
2019-06-27T02:24:02.057Z,99874.14
2019-06-27T02:26:29.886Z,99879.63
2019-06-27T02:28:56.922Z,99875.27
2019-06-27T02:31:24.555Z,99875.08
2019-06-27T02:33:52.236Z,99871.54
2019-06-27T02:36:20.241Z,99702.92
2019-06-27T02:38:48.177Z,99884.19
2019-06-27T02:41:15.861Z,99887.41
2019-06-27T02:43:44.048Z,99880.63
2019-06-27T02:46:11.813Z,99894.86
2019-06-27T02:48:39.465Z,99893.64
2019-06-27T02:51:07.440Z,99894.95
2019-06-27T02:53:34.993Z,99892.52
2019-06-27T02:56:01.998Z,99897.63
2019-06-27T02:58:32.342Z,99888.52
2019-06-27T03:00:59.757Z,99892.90
2019-06-27T03:03:27.493Z,99891.91
2019-06-27T03:05:54.823Z,99891.18
2019-06-27T03:08:21.743Z,99899.77
2019-06-27T03:10:49.528Z,99899.27
2019-06-27T03:13:17.176Z,99903.39
2019-06-27T03:15:45.024Z,99908.23
2019-06-27T03:18:12.692Z,99906.22
2019-06-27T03:20:40.316Z,99901.00
2019-06-27T03:23:07.914Z,99906.92
2019-06-27T03:25:35.946Z,99910.80
2019-06-27T03:28:03.388Z,99907.61
2019-06-27T03:30:30.817Z,99910.97
2019-06-27T03:32:58.602Z,99909.19
2019-06-27T03:35:25.985Z,99911.27
2019-06-27T03:37:54.240Z,99911.14
2019-06-27T03:40:22.209Z,99907.69
2019-06-27T03:42:49.848Z,99913.34
2019-06-27T03:45:17.784Z,99916.69
2019-06-27T03:47:45.674Z,99924.41
2019-06-27T03:50:13.244Z,99719.59
2019-06-27T03:52:40.887Z,99922.24
2019-06-27T03:55:08.782Z,99933.01
2019-06-27T03:57:36.169Z,99921.84
2019-06-27T04:00:04.050Z,99921.06
2019-06-27T04:02:32.252Z,99914.27
2019-06-27T04:04:59.077Z,99919.66
2019-06-27T04:07:26.219Z,99920.84
2019-06-27T04:09:53.878Z,99926.08
2019-06-27T04:12:21.898Z,99929.81
2019-06-27T04:14:49.663Z,99927.25
2019-06-27T04:17:17.435Z,99921.47
2019-06-27T04:19:45.090Z,99921.20
2019-06-27T04:22:17.140Z,99923.02
2019-06-27T04:24:41.946Z,99919.56
2019-06-27T04:27:09.805Z,99926.61
2019-06-27T04:29:36.632Z,99926.75
2019-06-27T04:32:03.756Z,99919.56
2019-06-27T04:34:30.930Z,99940.85
2019-06-27T04:36:58.605Z,99931.87
2019-06-27T04:39:26.439Z,99948.52
2019-06-27T04:41:53.521Z,99955.19
2019-06-27T04:44:20.665Z,99906.35
2019-06-27T04:46:48.737Z,99954.95
2019-06-27T04:49:15.750Z,99956.09
2019-06-27T04:51:42.800Z,99958.14
2019-06-27T04:54:09.898Z,99957.76
2019-06-27T04:56:37.039Z,99964.03
2019-06-27T04:59:04.139Z,99955.59
2019-06-27T05:01:30.760Z,99956.58
2019-06-27T05:03:57.812Z,99951.05
2019-06-27T05:06:24.550Z,99944.64
2019-06-27T05:08:51.960Z,99943.38
2019-06-27T05:11:18.816Z,99954.66
2019-06-27T05:13:46.736Z,99958.26
2019-06-27T05:16:13.525Z,99966.86
2019-06-27T05:18:41.070Z,99972.50
2019-06-27T05:21:07.805Z,99968.00
2019-06-27T05:23:35.719Z,99963.89
2019-06-27T05:26:02.762Z,99966.71
2019-06-27T05:28:29.533Z,99965.45
2019-06-27T05:30:57.257Z,99972.61
2019-06-27T05:33:24.576Z,99719.90
2019-06-27T05:35:51.946Z,99990.05
2019-06-27T05:38:18.549Z,99979.02
2019-06-27T05:40:46.143Z,99970.45
2019-06-27T05:43:13.678Z,99976.47
2019-06-27T05:45:40.399Z,99984.41
2019-06-27T05:48:07.429Z,99973.13
2019-06-27T05:50:35.300Z,99975.95
2019-06-27T05:53:02.068Z,99996.34
2019-06-27T05:55:29.154Z,99984.67
2019-06-27T05:57:56.065Z,99984.30
2019-06-27T06:00:28.822Z,99983.38
2019-06-27T06:02:51.976Z,99982.86
2019-06-27T06:05:18.907Z,99994.78
2019-06-27T06:07:45.751Z,99987.61
2019-06-27T06:10:13.138Z,99989.02
2019-06-27T06:12:40.182Z,99990.81
2019-06-27T06:15:07.887Z,99989.66
2019-06-27T06:17:35.257Z,99997.60
2019-06-27T06:20:07.487Z,99991.94
2019-06-27T06:22:34.346Z,100004.38
2019-06-27T06:25:02.155Z,99996.94
2019-06-27T06:27:29.479Z,99990.11
2019-06-27T06:29:56.650Z,99994.34
2019-06-27T06:32:24.270Z,99993.60
2019-06-27T06:34:51.786Z,99995.76
2019-06-27T06:37:18.942Z,99996.71
2019-06-27T06:39:46.183Z,99992.94
2019-06-27T06:42:13.793Z,100004.11
2019-06-27T06:44:42.015Z,100004.00
2019-06-27T06:47:08.641Z,99996.67
2019-06-27T06:49:35.796Z,99994.59
2019-06-27T06:52:02.903Z,100002.16
2019-06-27T06:54:30.660Z,99999.41
2019-06-27T06:56:58.218Z,100003.62
2019-06-27T06:59:25.741Z,100008.69
2019-06-27T07:01:53.527Z,100005.06
2019-06-27T07:04:21.263Z,100011.22
2019-06-27T07:06:48.057Z,100006.84
2019-06-27T07:09:16.039Z,100012.91
2019-06-27T07:11:43.634Z,100012.23
2019-06-27T07:14:11.306Z,100018.76
2019-06-27T07:16:38.898Z,100021.97
2019-06-27T07:19:06.111Z,100015.76
2019-06-27T07:21:33.651Z,100017.75
2019-06-27T07:24:01.771Z,100017.79
2019-06-27T07:26:29.622Z,100013.59
2019-06-27T07:28:57.588Z,100014.86
2019-06-27T07:31:25.282Z,100010.80
2019-06-27T07:33:52.849Z,100006.84
2019-06-27T07:36:20.699Z,100010.26
2019-06-27T07:38:48.447Z,100006.44
2019-06-27T07:41:15.211Z,100007.91
2019-06-27T07:43:42.665Z,100008.98
2019-06-27T07:46:24.132Z,100013.00
2019-06-27T07:48:39.450Z,100013.21
2019-06-27T07:51:06.701Z,100017.50
2019-06-27T07:53:34.391Z,99830.80
2019-06-27T07:56:02.086Z,100012.94
2019-06-27T07:58:29.750Z,100020.25
2019-06-27T08:00:57.500Z,100008.36
2019-06-27T08:03:24.758Z,100014.55
2019-06-27T08:05:52.083Z,100013.64
2019-06-27T08:08:19.482Z,100008.47
2019-06-27T08:10:46.786Z,100013.02
2019-06-27T08:13:14.807Z,100016.40
2019-06-27T08:15:41.969Z,100009.87
2019-06-27T08:18:09.719Z,99997.91
2019-06-27T08:20:36.556Z,100015.35
2019-06-27T08:23:04.315Z,100003.75
2019-06-27T08:25:31.283Z,100010.34
2019-06-27T08:27:58.157Z,100002.70
2019-06-27T08:30:26.008Z,100007.86
2019-06-27T08:32:53.275Z,99997.72
2019-06-27T08:35:21.073Z,99993.02
2019-06-27T08:37:48.576Z,99994.18
2019-06-27T08:40:16.413Z,99988.28
2019-06-27T08:42:44.087Z,99988.38
2019-06-27T08:45:13.837Z,99993.72
2019-06-27T08:47:41.084Z,99985.41
2019-06-27T08:50:08.466Z,99973.31
2019-06-27T08:52:36.096Z,99983.13
2019-06-27T08:55:07.321Z,99978.20
2019-06-27T08:57:34.609Z,99987.89
2019-06-27T09:00:03.121Z,99990.19
2019-06-27T09:02:30.337Z,99977.38
2019-06-27T09:04:57.754Z,99975.89
2019-06-27T09:07:25.725Z,99966.46
2019-06-27T09:09:53.172Z,99960.05
2019-06-27T09:12:20.007Z,99966.67
2019-06-27T09:14:47.681Z,99966.70
2019-06-27T09:17:14.847Z,99967.35
2019-06-27T09:19:42.398Z,99970.33
2019-06-27T09:22:09.754Z,99978.63
2019-06-27T09:24:36.888Z,99965.03
2019-06-27T09:27:04.472Z,99959.66
2019-06-27T09:29:32.543Z,99958.95
2019-06-27T09:31:59.946Z,99959.06
2019-06-27T09:34:27.940Z,99956.80
2019-06-27T09:36:55.732Z,99952.63
2019-06-27T09:39:26.887Z,99948.07
2019-06-27T09:41:53.393Z,99942.15
2019-06-27T09:44:20.289Z,99937.76
2019-06-27T09:46:47.843Z,99945.97
2019-06-27T09:49:15.873Z,99942.98
2019-06-27T09:51:43.412Z,99948.38
2019-06-27T09:54:10.273Z,99946.92
2019-06-27T09:56:37.221Z,99948.83
2019-06-27T09:59:04.130Z,99944.23
2019-06-27T10:01:30.749Z,99944.70
2019-06-27T10:03:57.568Z,99942.38
2019-06-27T10:06:26.308Z,99935.93
2019-06-27T10:08:54.142Z,99947.50
2019-06-27T10:11:22.174Z,99947.78
2019-06-27T10:13:50.011Z,99938.59
2019-06-27T10:16:17.146Z,99940.75
2019-06-27T10:18:44.042Z,99941.16
2019-06-27T10:21:11.530Z,99931.19
2019-06-27T10:23:39.366Z,99941.03
2019-06-27T10:26:07.330Z,99946.11
2019-06-27T10:28:34.166Z,99939.16
2019-06-27T10:31:01.595Z,99940.73
2019-06-27T10:33:29.550Z,99930.88
2019-06-27T10:35:56.334Z,99782.77
2019-06-27T10:38:23.055Z,99923.40
2019-06-27T10:40:50.505Z,99925.97
2019-06-27T10:43:17.798Z,99924.63
2019-06-27T10:45:44.641Z,99924.98
2019-06-27T10:48:11.486Z,99920.45
2019-06-27T10:50:39.638Z,99912.96
2019-06-27T10:53:06.498Z,99915.70
2019-06-27T10:55:34.538Z,99920.53
2019-06-27T10:58:01.395Z,99912.81
2019-06-27T11:00:28.225Z,99910.75
2019-06-27T11:02:55.392Z,99909.48
2019-06-27T11:05:22.243Z,99910.55
2019-06-27T11:07:49.241Z,99901.28
2019-06-27T11:10:16.447Z,99909.37
2019-06-27T11:12:45.085Z,99919.12
2019-06-27T11:15:12.807Z,99913.84
2019-06-27T11:17:39.930Z,99910.11
2019-06-27T11:20:06.980Z,99907.88
2019-06-27T11:22:33.894Z,99906.77
2019-06-27T11:25:02.133Z,99900.84
2019-06-27T11:27:30.005Z,99906.52
2019-06-27T11:29:57.871Z,99901.97
2019-06-27T11:32:24.612Z,99904.92
2019-06-27T11:34:52.445Z,99901.16
2019-06-27T11:37:19.697Z,99902.13
2019-06-27T11:39:47.190Z,99900.91
2019-06-27T11:42:14.360Z,99894.31
2019-06-27T11:44:41.180Z,99898.20
2019-06-27T11:47:08.008Z,99903.04
2019-06-27T11:49:34.941Z,99901.34
2019-06-27T11:52:02.418Z,99894.09
2019-06-27T11:54:30.056Z,99892.36
2019-06-27T11:56:56.814Z,99893.98
2019-06-27T11:59:23.956Z,99896.30
2019-06-27T12:01:51.642Z,99888.59
2019-06-27T12:04:18.807Z,99888.80
2019-06-27T12:06:48.717Z,99888.72
2019-06-27T12:09:15.439Z,99890.39
2019-06-27T12:11:42.382Z,99880.99
2019-06-27T12:14:09.296Z,99878.96
2019-06-27T12:16:36.019Z,99892.02
2019-06-27T12:19:03.687Z,99877.00
2019-06-27T12:21:30.691Z,99882.76
2019-06-27T12:23:58.947Z,99886.72
2019-06-27T12:26:25.909Z,99879.52
2019-06-27T12:28:52.669Z,99887.67
2019-06-27T12:31:21.217Z,99888.42
2019-06-27T12:34:05.240Z,99870.18
2019-06-27T12:36:18.102Z,99872.89
2019-06-27T12:38:44.995Z,99874.02
2019-06-27T12:41:11.860Z,99868.74
2019-06-27T12:43:38.903Z,99869.33
2019-06-27T12:46:05.745Z,99877.52
2019-06-27T12:48:32.560Z,99873.06
2019-06-27T12:50:59.583Z,99869.55
2019-06-27T12:53:26.439Z,99869.77
2019-06-27T12:55:53.360Z,99868.83
2019-06-27T12:58:20.121Z,99882.62
2019-06-27T13:00:47.711Z,99858.50
2019-06-27T13:03:14.567Z,99856.75
2019-06-27T13:05:41.308Z,99857.23
2019-06-27T13:08:08.450Z,99845.66
2019-06-27T13:10:35.859Z,99843.00
2019-06-27T13:13:04.356Z,99841.75
2019-06-27T13:15:31.591Z,99851.41
2019-06-27T13:17:58.366Z,99848.14
2019-06-27T13:20:25.450Z,99842.56
2019-06-27T13:22:53.626Z,99837.92
2019-06-27T13:25:20.389Z,99842.45
2019-06-27T13:27:47.683Z,99839.09
2019-06-27T13:30:14.762Z,99844.09
2019-06-27T13:32:41.695Z,99849.87
2019-06-27T13:35:08.853Z,99834.78
2019-06-27T13:37:35.677Z,99834.63
2019-06-27T13:40:04.896Z,99830.96
2019-06-27T13:42:32.763Z,99828.58
2019-06-27T13:44:59.515Z,99819.89
2019-06-27T13:47:26.754Z,99818.92
2019-06-27T13:49:53.607Z,99826.84
2019-06-27T13:52:20.371Z,99824.95
2019-06-27T13:54:47.478Z,99827.92
2019-06-27T13:57:14.936Z,99818.36
2019-06-27T13:59:42.538Z,99814.75
2019-06-27T14:02:09.807Z,99788.57
2019-06-27T14:04:37.176Z,99806.44
2019-06-27T14:07:04.180Z,99810.45
2019-06-27T14:09:31.235Z,99775.67
2019-06-27T14:11:58.105Z,99812.33
2019-06-27T14:14:25.690Z,99814.12
2019-06-27T14:16:52.555Z,99806.48
2019-06-27T14:19:19.589Z,99802.41
2019-06-27T14:21:47.503Z,99806.56
2019-06-27T14:24:17.537Z,99801.63
2019-06-27T14:26:43.652Z,99800.14
2019-06-27T14:29:10.597Z,99793.41
2019-06-27T14:31:38.036Z,99797.19
2019-06-27T14:34:05.812Z,99805.43
2019-06-27T14:36:32.673Z,99803.16
2019-06-27T14:38:59.530Z,99797.48
2019-06-27T14:41:26.165Z,99793.92
2019-06-27T14:43:53.504Z,99798.46
2019-06-27T14:46:20.428Z,99798.08
2019-06-27T14:48:47.159Z,99793.93
2019-06-27T14:51:14.643Z,99791.02
2019-06-27T14:53:41.811Z,99792.55
2019-06-27T14:56:08.709Z,99790.22
2019-06-27T14:58:35.896Z,99781.20
2019-06-27T15:01:07.019Z,99788.23
2019-06-27T15:03:32.911Z,99796.42
2019-06-27T15:06:00.464Z,99786.33
2019-06-27T15:08:27.824Z,99784.56
2019-06-27T15:10:54.731Z,99786.08
2019-06-27T15:13:21.743Z,99784.12
2019-06-27T15:15:48.804Z,99780.42
2019-06-27T15:18:16.856Z,99777.73
2019-06-27T15:20:44.071Z,99782.89
2019-06-27T15:23:10.903Z,99772.91
2019-06-27T15:25:37.754Z,99773.00
2019-06-27T15:28:05.844Z,99772.84
2019-06-27T15:30:32.843Z,99780.19
2019-06-27T15:32:59.858Z,99774.34
2019-06-27T15:35:26.852Z,99771.17
2019-06-27T15:37:54.108Z,99767.20
2019-06-27T15:40:21.601Z,99765.55
2019-06-27T15:42:48.902Z,99760.64
2019-06-27T15:45:16.384Z,99765.00
2019-06-27T15:47:44.175Z,99765.00
2019-06-27T15:50:11.964Z,99761.31
2019-06-27T15:52:38.929Z,99765.28
2019-06-27T15:55:07.091Z,99770.92
2019-06-27T15:57:33.903Z,99765.52
2019-06-27T16:00:00.685Z,99763.39
2019-06-27T16:02:27.891Z,99758.91
2019-06-27T16:04:54.961Z,99761.62
2019-06-27T16:07:21.765Z,99760.38
2019-06-27T16:09:48.725Z,99767.21
2019-06-27T16:12:15.866Z,99760.64
2019-06-27T16:14:43.007Z,99759.98
2019-06-27T16:17:09.878Z,99757.59
2019-06-27T16:19:36.735Z,99756.78
2019-06-27T16:22:03.879Z,99754.27
2019-06-27T16:24:30.732Z,99760.45
2019-06-27T16:26:57.839Z,99756.33
2019-06-27T16:29:24.939Z,99746.62
2019-06-27T16:31:51.706Z,99764.34
2019-06-27T16:34:19.730Z,99760.88
2019-06-27T16:36:47.492Z,99724.57
2019-06-27T16:39:14.758Z,99754.14
2019-06-27T16:41:41.709Z,99759.80
2019-06-27T16:44:09.357Z,99756.16
2019-06-27T16:46:37.150Z,99761.03
2019-06-27T16:49:09.037Z,99750.00
2019-06-27T16:51:33.955Z,99755.44
2019-06-27T16:54:00.981Z,99768.89
2019-06-27T16:56:28.195Z,99764.52
2019-06-27T16:58:55.141Z,99758.13
2019-06-27T17:01:22.022Z,99762.24
2019-06-27T17:03:49.117Z,99764.42
2019-06-27T17:06:16.862Z,99766.56
2019-06-27T17:08:43.851Z,99764.03
2019-06-27T17:11:11.795Z,99763.66
2019-06-27T17:13:38.653Z,99769.22
2019-06-27T17:16:05.489Z,99771.02
2019-06-27T17:18:33.730Z,99768.02
2019-06-27T17:21:00.650Z,99772.87
2019-06-27T17:23:28.353Z,99771.30
2019-06-27T17:25:56.014Z,99776.47
2019-06-27T17:28:23.058Z,99770.87
2019-06-27T17:30:49.899Z,99780.57
2019-06-27T17:33:17.226Z,99780.52
2019-06-27T17:35:43.958Z,99779.59
2019-06-27T17:38:10.948Z,99786.50
2019-06-27T17:40:37.759Z,99779.03
2019-06-27T17:43:04.966Z,99781.19
2019-06-27T17:45:31.753Z,99777.31
2019-06-27T17:47:58.656Z,99784.92
2019-06-27T17:50:25.522Z,99786.46
2019-06-27T17:52:53.516Z,99782.44
2019-06-27T17:55:20.396Z,99793.69
2019-06-27T17:57:47.503Z,99781.33
2019-06-27T18:00:15.259Z,99780.28
2019-06-27T18:02:42.355Z,99778.67
2019-06-27T18:05:09.254Z,99790.02
2019-06-27T18:07:36.335Z,99784.61
2019-06-27T18:10:03.982Z,99779.29
2019-06-27T18:12:31.841Z,99775.42
2019-06-27T18:14:58.516Z,99777.40
2019-06-27T18:17:33.626Z,99773.61
2019-06-27T18:19:55.121Z,99777.23
2019-06-27T18:22:22.166Z,99766.66
2019-06-27T18:24:49.093Z,99616.34
2019-06-27T18:27:16.437Z,99453.58
2019-06-27T18:29:43.178Z,99769.27
2019-06-27T18:32:09.998Z,99769.04
2019-06-27T18:34:38.096Z,99769.77
2019-06-27T18:37:04.948Z,99761.34
2019-06-27T18:39:31.701Z,99770.46
2019-06-27T18:41:59.105Z,99768.50
2019-06-27T18:44:27.080Z,99776.40
2019-06-27T18:46:54.499Z,99767.61
2019-06-27T18:49:21.709Z,99774.59
2019-06-27T18:51:49.331Z,99770.59
2019-06-27T18:54:17.466Z,99774.07
2019-06-27T18:56:44.303Z,99769.99
2019-06-27T18:59:11.130Z,99778.58
2019-06-27T19:01:38.045Z,99794.86
2019-06-27T19:04:05.245Z,99783.56
2019-06-27T19:06:32.163Z,99781.10
2019-06-27T19:09:00.503Z,99789.98
2019-06-27T19:11:28.172Z,99789.02
2019-06-27T19:13:55.031Z,99793.77
2019-06-27T19:16:21.933Z,99791.38
2019-06-27T19:18:53.592Z,99795.91
2019-06-27T19:21:38.643Z,99794.94
2019-06-27T19:24:16.837Z,99794.86
2019-06-27T19:26:44.092Z,99804.44
2019-06-27T19:29:10.962Z,99800.33
2019-06-27T19:31:38.569Z,99809.27
2019-06-27T19:34:06.335Z,99809.28
2019-06-27T19:36:32.954Z,99816.48
2019-06-27T19:38:59.680Z,99820.19
2019-06-27T19:41:26.732Z,99815.83
2019-06-27T19:43:53.515Z,99827.05
2019-06-27T19:46:20.457Z,99824.34
2019-06-27T19:48:47.353Z,99825.91
2019-06-27T19:51:14.086Z,99829.50
2019-06-27T19:53:41.169Z,99837.67
2019-06-27T19:56:08.064Z,99844.92
2019-06-27T19:58:35.970Z,99854.08
2019-06-27T20:01:04.762Z,99846.94
2019-06-27T20:03:31.657Z,99853.26
2019-06-27T20:05:58.497Z,99856.48
2019-06-27T20:08:25.734Z,99858.17
2019-06-27T20:10:53.308Z,99862.13
2019-06-27T20:13:20.126Z,99864.92
2019-06-27T20:15:47.674Z,99869.27
2019-06-27T20:18:14.697Z,99866.27
2019-06-27T20:20:41.782Z,99872.66
2019-06-27T20:23:09.029Z,99873.16
2019-06-27T20:25:36.057Z,99865.26
2019-06-27T20:28:03.318Z,99873.17
2019-06-27T20:30:30.254Z,99870.83
2019-06-27T20:32:57.329Z,99875.23
2019-06-27T20:35:24.156Z,99878.68
2019-06-27T20:37:51.155Z,99885.67
2019-06-27T20:40:18.685Z,99877.63
2019-06-27T20:42:46.494Z,99886.94
2019-06-27T20:45:13.769Z,99891.27
2019-06-27T20:47:41.440Z,99892.83
2019-06-27T20:50:09.132Z,99894.53
2019-06-27T20:52:36.062Z,99898.71
2019-06-27T20:55:03.322Z,99893.66
2019-06-27T20:57:30.927Z,99893.98
2019-06-27T20:59:58.426Z,99902.14
2019-06-27T21:02:26.759Z,99906.31
2019-06-27T21:04:54.196Z,99902.28
2019-06-27T21:07:21.732Z,99901.70
2019-06-27T21:09:48.647Z,99901.84
2019-06-27T21:12:16.301Z,99908.66
2019-06-27T21:14:43.851Z,99908.58
2019-06-27T21:17:10.698Z,99910.79
2019-06-27T21:19:37.862Z,99912.53
2019-06-27T21:22:04.870Z,99918.48
2019-06-27T21:24:32.450Z,99921.58
2019-06-27T21:26:59.351Z,99925.19
2019-06-27T21:29:27.281Z,99925.87
2019-06-27T21:31:54.180Z,99923.11
2019-06-27T21:34:21.220Z,99922.50
2019-06-27T21:36:49.273Z,99921.99
2019-06-27T21:39:16.073Z,99922.92
2019-06-27T21:41:43.003Z,99919.33
2019-06-27T21:44:10.714Z,99910.73
2019-06-27T21:46:38.481Z,99925.77
2019-06-27T21:49:06.349Z,99932.19
2019-06-27T21:51:34.039Z,99923.22
2019-06-27T21:54:01.077Z,99922.73
2019-06-27T21:56:28.261Z,99921.73
2019-06-27T21:58:55.542Z,99927.77
2019-06-27T22:01:23.122Z,99923.42
2019-06-27T22:03:50.251Z,99926.75
2019-06-27T22:06:17.162Z,99922.77
2019-06-27T22:08:44.638Z,99926.23
2019-06-27T22:11:11.470Z,99932.64
2019-06-27T22:13:38.573Z,99934.94
2019-06-27T22:16:06.150Z,99938.93
2019-06-27T22:18:33.041Z,99938.77
2019-06-27T22:21:00.033Z,99934.38
2019-06-27T22:23:27.830Z,99941.80
2019-06-27T22:25:55.321Z,99753.05
2019-06-27T22:28:22.201Z,99953.44
2019-06-27T22:30:49.774Z,99950.37
2019-06-27T22:33:17.586Z,99953.55
2019-06-27T22:35:44.716Z,99951.61
2019-06-27T22:38:29.922Z,99955.56
2019-06-27T22:41:16.283Z,99952.90
2019-06-27T22:44:05.277Z,99950.95
2019-06-27T22:46:52.697Z,99954.13
2019-06-27T22:49:24.086Z,99969.55
2019-06-27T22:52:01.701Z,99954.16
2019-06-27T22:54:33.659Z,99955.05
2019-06-27T22:57:01.203Z,99958.61
2019-06-27T22:59:28.025Z,99958.78
2019-06-27T23:01:55.623Z,99965.81
2019-06-27T23:04:23.469Z,99741.11
2019-06-27T23:06:51.149Z,99966.90
2019-06-27T23:09:18.688Z,99972.41
2019-06-27T23:11:46.273Z,99963.30
2019-06-27T23:14:14.140Z,99962.23
2019-06-27T23:16:41.925Z,99957.52
2019-06-27T23:19:11.699Z,99961.02
2019-06-27T23:21:41.049Z,99959.04
2019-06-27T23:24:08.713Z,99963.86
2019-06-27T23:26:36.400Z,99961.63
2019-06-27T23:29:04.096Z,99965.59
2019-06-27T23:31:31.700Z,99967.74
2019-06-27T23:33:59.431Z,99954.42
2019-06-27T23:36:27.251Z,99920.39
2019-06-27T23:38:54.130Z,99952.44
2019-06-27T23:41:21.485Z,99950.22
2019-06-27T23:43:48.173Z,99955.41
2019-06-27T23:46:33.346Z,99955.41
2019-06-27T23:49:00.123Z,99947.13
2019-06-27T23:51:26.938Z,99951.94
2019-06-27T23:53:53.793Z,99946.11
2019-06-27T23:56:20.845Z,99954.55
2019-06-27T23:58:48.547Z,99948.50
